createdAt,value
2023-05-10T00:01:26.971Z,101281.91
2023-05-10T00:03:55.297Z,101279.91
2023-05-10T00:06:23.857Z,101274.19
2023-05-10T00:08:52.178Z,101283.88
2023-05-10T00:11:22.186Z,101279.72
2023-05-10T00:13:51.200Z,101287.22
2023-05-10T00:16:19.579Z,101292.41
2023-05-10T00:18:48.107Z,101293.50
2023-05-10T00:21:16.520Z,101297.00
2023-05-10T00:23:44.826Z,101302.84
2023-05-10T00:26:13.262Z,101302.69
2023-05-10T00:28:41.577Z,101309.56
2023-05-10T00:31:09.949Z,101317.50
2023-05-10T00:33:38.216Z,101312.38
2023-05-10T00:36:09.306Z,101317.66
2023-05-10T00:38:37.516Z,101312.72
2023-05-10T00:41:06.054Z,101313.41
2023-05-10T00:43:34.339Z,101316.66
2023-05-10T00:46:02.782Z,101320.44
2023-05-10T00:48:31.857Z,101323.09
2023-05-10T00:51:00.177Z,101316.06
2023-05-10T00:53:29.318Z,101322.28
2023-05-10T00:55:57.677Z,101324.53
2023-05-10T00:58:29.851Z,101314.25
2023-05-10T01:00:59.096Z,101313.63
2023-05-10T01:03:28.129Z,101314.50
2023-05-10T01:05:57.057Z,101318.03
2023-05-10T01:08:25.790Z,101317.31
2023-05-10T01:10:54.481Z,101313.28
2023-05-10T01:13:52.412Z,101310.81
2023-05-10T01:16:20.776Z,101316.63
2023-05-10T01:18:50.625Z,101321.13
2023-05-10T01:21:33.914Z,101320.81
2023-05-10T01:24:16.976Z,101318.63
2023-05-10T01:27:19.415Z,101326.13
2023-05-10T01:30:17.312Z,101323.16
2023-05-10T01:32:59.919Z,101318.38
2023-05-10T01:35:43.851Z,101325.78
2023-05-10T01:38:30.709Z,101328.19
2023-05-10T01:41:21.974Z,101327.94
2023-05-10T01:44:20.588Z,101328.41
2023-05-10T01:47:00.303Z,101333.09
2023-05-10T01:49:34.602Z,101334.41
2023-05-10T01:52:09.164Z,101338.28
2023-05-10T01:54:37.897Z,101331.41
2023-05-10T01:57:10.687Z,101339.44
2023-05-10T01:59:42.580Z,101332.63
2023-05-10T02:02:13.786Z,101334.84
2023-05-10T02:04:44.278Z,101331.44
2023-05-10T02:07:13.756Z,101337.66
2023-05-10T02:09:46.098Z,101341.44
2023-05-10T02:12:16.120Z,101340.75
2023-05-10T02:14:45.829Z,101346.13
2023-05-10T02:17:15.177Z,101346.41
2023-05-10T02:19:45.268Z,101355.63
2023-05-10T02:22:15.420Z,101363.94
2023-05-10T02:24:44.955Z,101360.91
2023-05-10T02:27:14.541Z,101363.84
2023-05-10T02:29:43.415Z,101356.94
2023-05-10T02:32:13.828Z,101362.28
2023-05-10T02:34:43.015Z,101370.50
2023-05-10T02:37:11.932Z,101374.22
2023-05-10T02:39:45.473Z,101375.28
2023-05-10T02:42:22.142Z,101379.94
2023-05-10T02:44:53.064Z,101383.47
2023-05-10T02:47:21.883Z,101389.06
2023-05-10T02:49:50.331Z,101400.13
2023-05-10T02:52:29.328Z,101393.25
2023-05-10T02:55:02.805Z,101400.59
2023-05-10T02:57:35.686Z,101399.16
2023-05-10T03:00:05.177Z,101411.00
2023-05-10T03:02:33.807Z,101414.78
2023-05-10T03:05:02.224Z,101415.88
2023-05-10T03:07:30.558Z,101417.59
2023-05-10T03:09:58.926Z,101430.03
2023-05-10T03:12:38.696Z,101424.81
2023-05-10T03:15:39.329Z,101432.97
2023-05-10T03:18:19.245Z,101431.44
2023-05-10T03:20:52.946Z,101436.94
2023-05-10T03:23:28.013Z,101443.38
2023-05-10T03:25:56.690Z,101447.94
2023-05-10T03:28:29.055Z,101445.34
2023-05-10T03:30:58.397Z,101457.09
2023-05-10T03:33:27.102Z,101456.31
2023-05-10T03:35:55.304Z,101457.41
2023-05-10T03:38:23.495Z,101457.56
2023-05-10T03:40:51.850Z,101463.88
2023-05-10T03:43:20.111Z,101462.28
2023-05-10T03:45:48.682Z,101463.38
2023-05-10T03:48:16.966Z,101468.00
2023-05-10T03:50:45.200Z,101469.03
2023-05-10T03:53:14.975Z,101464.72
2023-05-10T03:55:44.225Z,101472.81
2023-05-10T03:58:15.978Z,101474.56
2023-05-10T04:00:47.108Z,101468.34
2023-05-10T04:03:15.763Z,101470.34
2023-05-10T04:05:44.053Z,101469.53
2023-05-10T04:08:12.441Z,101474.81
2023-05-10T04:10:41.545Z,101474.09
2023-05-10T04:13:09.767Z,101486.56
2023-05-10T04:15:38.158Z,101489.22
2023-05-10T04:18:08.695Z,101493.63
2023-05-10T04:20:37.381Z,101494.47
2023-05-10T04:23:05.683Z,101499.81
2023-05-10T04:25:37.422Z,101499.16
2023-05-10T04:28:05.822Z,101502.75
2023-05-10T04:30:34.066Z,101504.66
2023-05-10T04:33:03.629Z,101506.59
2023-05-10T04:35:32.106Z,101511.06
2023-05-10T04:38:00.299Z,101509.38
2023-05-10T04:40:28.929Z,101511.34
2023-05-10T04:42:57.352Z,101512.34
2023-05-10T04:45:25.550Z,101515.91
2023-05-10T04:47:53.769Z,101515.00
2023-05-10T04:50:22.053Z,101522.97
2023-05-10T04:52:50.235Z,101521.34
2023-05-10T04:55:18.484Z,101524.16
2023-05-10T04:57:47.089Z,101527.81
2023-05-10T05:00:15.820Z,101521.63
2023-05-10T05:02:48.183Z,101527.97
2023-05-10T05:05:16.571Z,101525.50
2023-05-10T05:07:44.712Z,101528.19
2023-05-10T05:10:12.909Z,101525.63
2023-05-10T05:12:41.098Z,101527.38
2023-05-10T05:15:11.054Z,101530.09
2023-05-10T05:17:39.427Z,101522.19
2023-05-10T05:20:08.442Z,101531.97
2023-05-10T05:22:38.688Z,101528.44
2023-05-10T05:25:07.837Z,101527.72
2023-05-10T05:27:36.065Z,101537.53
2023-05-10T05:30:04.356Z,101528.56
2023-05-10T05:32:32.835Z,101533.09
2023-05-10T05:35:01.217Z,101537.56
2023-05-10T05:37:29.441Z,101529.56
2023-05-10T05:39:57.688Z,101532.22
2023-05-10T05:42:25.913Z,101515.31
2023-05-10T05:44:54.152Z,101527.72
2023-05-10T05:47:22.800Z,101525.03
2023-05-10T05:49:50.962Z,101526.91
2023-05-10T05:52:19.508Z,101522.50
2023-05-10T05:54:48.267Z,101522.63
2023-05-10T05:57:16.460Z,101527.22
2023-05-10T05:59:45.711Z,101525.63
2023-05-10T06:02:14.146Z,101525.75
2023-05-10T06:04:44.642Z,101531.25
2023-05-10T06:07:13.099Z,101528.72
2023-05-10T06:09:41.559Z,101530.53
2023-05-10T06:12:09.771Z,101529.66
2023-05-10T06:14:38.139Z,101520.88
2023-05-10T06:17:06.952Z,101521.91
2023-05-10T06:19:35.172Z,101524.66
2023-05-10T06:22:03.657Z,101525.56
2023-05-10T06:24:31.905Z,101524.69
2023-05-10T06:27:01.921Z,101525.69
2023-05-10T06:29:30.166Z,101522.28
2023-05-10T06:31:58.554Z,101522.41
2023-05-10T06:34:27.545Z,101517.22
2023-05-10T06:36:55.784Z,101520.03
2023-05-10T06:39:24.112Z,101520.16
2023-05-10T06:41:52.319Z,101514.91
2023-05-10T06:44:20.513Z,101519.41
2023-05-10T06:46:49.434Z,101520.34
2023-05-10T06:49:17.734Z,101523.03
2023-05-10T06:51:47.104Z,101522.19
2023-05-10T06:54:15.505Z,101525.03
2023-05-10T06:56:43.801Z,101529.59
2023-05-10T06:59:12.101Z,101521.63
2023-05-10T07:01:40.365Z,101516.47
2023-05-10T07:04:09.610Z,101527.22
2023-05-10T07:06:37.870Z,101521.03
2023-05-10T07:09:06.134Z,101525.53
2023-05-10T07:11:34.329Z,101524.72
2023-05-10T07:14:02.608Z,101524.78
2023-05-10T07:16:30.794Z,101521.28
2023-05-10T07:18:59.013Z,101526.72
2023-05-10T07:21:30.271Z,101521.53
2023-05-10T07:23:58.544Z,101522.59
2023-05-10T07:26:27.072Z,101520.03
2023-05-10T07:28:55.251Z,101515.75
2023-05-10T07:31:23.537Z,101516.72
2023-05-10T07:33:51.728Z,101509.69
2023-05-10T07:36:20.126Z,101508.75
2023-05-10T07:38:48.793Z,101508.81
2023-05-10T07:41:16.973Z,101512.44
2023-05-10T07:43:45.546Z,101514.31
2023-05-10T07:46:13.773Z,101508.09
2023-05-10T07:48:42.100Z,101514.28
2023-05-10T07:51:11.272Z,101514.38
2023-05-10T07:53:42.326Z,101524.13
2023-05-10T07:56:47.260Z,101521.56
2023-05-10T07:59:19.580Z,101516.34
2023-05-10T08:01:48.466Z,101517.38
2023-05-10T08:04:17.278Z,101514.81
2023-05-10T08:06:45.511Z,101513.13
2023-05-10T08:09:13.787Z,101512.31
2023-05-10T08:11:41.985Z,101511.47
2023-05-10T08:14:10.186Z,101513.38
2023-05-10T08:16:38.395Z,101509.06
2023-05-10T08:19:06.672Z,101504.72
2023-05-10T08:21:34.901Z,101510.25
2023-05-10T08:24:03.268Z,101503.25
2023-05-10T08:26:31.598Z,101505.09
2023-05-10T08:28:59.821Z,101498.88
2023-05-10T08:31:28.311Z,101498.91
2023-05-10T08:33:56.505Z,101502.47
2023-05-10T08:36:26.083Z,101500.78
2023-05-10T08:38:55.281Z,101502.59
2023-05-10T08:41:25.641Z,101503.56
2023-05-10T08:43:55.383Z,101501.00
2023-05-10T08:46:25.272Z,101494.91
2023-05-10T08:48:54.027Z,101489.69
2023-05-10T08:51:27.128Z,101485.25
2023-05-10T08:53:55.582Z,101481.75
2023-05-10T08:56:23.838Z,101481.78
2023-05-10T08:58:53.382Z,101480.88
2023-05-10T09:01:22.625Z,101475.56
2023-05-10T09:03:51.352Z,101481.78
2023-05-10T09:06:19.649Z,101480.03
2023-05-10T09:08:49.495Z,101472.19
2023-05-10T09:11:19.476Z,101478.50
2023-05-10T09:13:49.636Z,101464.47
2023-05-10T09:16:21.817Z,101472.50
2023-05-10T09:18:51.338Z,101462.81
2023-05-10T09:21:21.290Z,101462.00
2023-05-10T09:23:51.773Z,101469.06
2023-05-10T09:26:25.071Z,101458.56
2023-05-10T09:28:58.105Z,101462.16
2023-05-10T09:31:29.514Z,101464.84
2023-05-10T09:33:58.084Z,101466.63
2023-05-10T09:36:26.254Z,101466.66
2023-05-10T09:38:54.862Z,101459.66
2023-05-10T09:41:24.967Z,101466.78
2023-05-10T09:43:58.385Z,101459.78
2023-05-10T09:46:26.761Z,101468.59
2023-05-10T09:48:55.067Z,101469.50
2023-05-10T09:51:24.760Z,101461.56
2023-05-10T09:54:20.351Z,101461.66
2023-05-10T09:56:48.862Z,101467.00
2023-05-10T09:59:17.223Z,101467.06
2023-05-10T10:01:52.984Z,101467.06
2023-05-10T10:04:23.190Z,101475.00
2023-05-10T10:07:11.662Z,101470.69
2023-05-10T10:09:40.565Z,101471.56
2023-05-10T10:12:08.767Z,101483.97
2023-05-10T10:14:39.328Z,101481.34
2023-05-10T10:17:08.910Z,101483.13
2023-05-10T10:19:38.476Z,101481.38
2023-05-10T10:22:07.969Z,101481.38
2023-05-10T10:24:36.525Z,101478.78
2023-05-10T10:27:23.716Z,101478.78
2023-05-10T10:30:12.120Z,101478.78
2023-05-10T10:32:52.150Z,101481.44
2023-05-10T10:35:20.882Z,101477.06
2023-05-10T10:37:52.162Z,101478.00
2023-05-10T10:40:33.680Z,101478.06
2023-05-10T10:43:30.393Z,101469.22
2023-05-10T10:46:20.824Z,101477.09
2023-05-10T10:49:11.006Z,101468.28
2023-05-10T10:51:42.622Z,101471.81
2023-05-10T10:54:14.260Z,101470.97
2023-05-10T10:56:42.450Z,101479.81
2023-05-10T10:59:10.956Z,101478.09
2023-05-10T11:01:45.964Z,101491.41
2023-05-10T11:04:14.382Z,101487.06
2023-05-10T11:06:44.280Z,101485.25
2023-05-10T11:09:14.516Z,101489.63
2023-05-10T11:12:00.162Z,101492.31
2023-05-10T11:14:28.799Z,101487.00
2023-05-10T11:16:57.096Z,101488.78
2023-05-10T11:19:30.446Z,101486.22
2023-05-10T11:22:07.778Z,101488.88
2023-05-10T11:24:37.584Z,101480.16
2023-05-10T11:27:06.198Z,101488.94
2023-05-10T11:29:34.396Z,101478.38
2023-05-10T11:32:02.614Z,101480.16
2023-05-10T11:34:35.271Z,101486.41
2023-05-10T11:37:03.676Z,101492.56
2023-05-10T11:39:35.375Z,101488.09
2023-05-10T11:42:03.689Z,101493.41
2023-05-10T11:44:33.561Z,101492.56
2023-05-10T11:47:02.884Z,101492.59
2023-05-10T11:49:31.224Z,101492.69
2023-05-10T11:52:13.186Z,101490.94
2023-05-10T11:55:01.595Z,101499.81
2023-05-10T11:57:30.532Z,101500.75
2023-05-10T11:59:59.450Z,101500.81
2023-05-10T12:02:27.934Z,101503.44
2023-05-10T12:04:57.850Z,101500.00
2023-05-10T12:07:27.945Z,101503.59
2023-05-10T12:10:10.067Z,101508.91
2023-05-10T12:12:49.874Z,101516.84
2023-05-10T12:15:26.555Z,101522.13
2023-05-10T12:17:54.945Z,101519.50
2023-05-10T12:20:25.079Z,101517.72
2023-05-10T12:22:57.807Z,101520.38
2023-05-10T12:25:32.784Z,101521.22
2023-05-10T12:28:04.589Z,101522.94
2023-05-10T12:30:34.702Z,101518.47
2023-05-10T12:33:03.996Z,101524.59
2023-05-10T12:35:36.044Z,101514.88
2023-05-10T12:38:40.928Z,101524.47
2023-05-10T12:41:11.455Z,101522.63
2023-05-10T12:43:40.807Z,101525.25
2023-05-10T12:46:10.804Z,101521.66
2023-05-10T12:48:40.327Z,101533.06
2023-05-10T12:51:11.299Z,101533.00
2023-05-10T12:53:41.524Z,101525.88
2023-05-10T12:56:11.694Z,101532.88
2023-05-10T12:58:40.721Z,101543.41
2023-05-10T13:01:08.983Z,101548.59
2023-05-10T13:03:37.160Z,101554.72
2023-05-10T13:06:05.483Z,101554.66
2023-05-10T13:08:35.191Z,101560.81
2023-05-10T13:11:04.935Z,101555.41
2023-05-10T13:13:33.084Z,101564.19
2023-05-10T13:16:01.276Z,101567.69
2023-05-10T13:18:29.658Z,101573.81
2023-05-10T13:20:57.955Z,101567.63
2023-05-10T13:23:26.179Z,101571.06
2023-05-10T13:25:54.535Z,101578.06
2023-05-10T13:28:22.770Z,101576.31
2023-05-10T13:30:50.943Z,101578.81
2023-05-10T13:33:19.115Z,101588.50
2023-05-10T13:35:47.396Z,101593.75
2023-05-10T13:38:15.915Z,101595.53
2023-05-10T13:40:44.187Z,101606.06
2023-05-10T13:43:12.447Z,101610.44
2023-05-10T13:45:40.803Z,101613.00
2023-05-10T13:48:09.016Z,101616.50
2023-05-10T13:50:37.300Z,101623.44
2023-05-10T13:53:05.700Z,101627.75
2023-05-10T13:55:34.061Z,101628.59
2023-05-10T13:58:02.250Z,101632.03
2023-05-10T14:00:30.424Z,101625.78
2023-05-10T14:02:58.702Z,101636.38
2023-05-10T14:05:27.327Z,101634.50
2023-05-10T14:07:55.741Z,101642.38
2023-05-10T14:10:23.926Z,101645.84
2023-05-10T14:12:52.448Z,101643.09
2023-05-10T14:15:20.674Z,101649.22
2023-05-10T14:17:49.681Z,101647.41
2023-05-10T14:20:18.118Z,101643.81
2023-05-10T14:22:46.661Z,101651.69
2023-05-10T14:25:15.903Z,101649.00
2023-05-10T14:27:44.443Z,101656.06
2023-05-10T14:30:13.379Z,101652.41
2023-05-10T14:32:41.603Z,101656.72
2023-05-10T14:35:12.188Z,101656.63
2023-05-10T14:37:41.314Z,101662.78
2023-05-10T14:40:11.092Z,101660.91
2023-05-10T14:42:39.288Z,101667.91
2023-05-10T14:45:07.959Z,101666.09
2023-05-10T14:47:36.390Z,101666.09
2023-05-10T14:50:04.737Z,101668.63
2023-05-10T14:52:34.355Z,101672.00
2023-05-10T14:55:03.176Z,101675.44
2023-05-10T14:57:31.562Z,101676.28
2023-05-10T14:59:59.938Z,101682.34
2023-05-10T15:02:28.635Z,101684.88
2023-05-10T15:04:57.515Z,101680.34
2023-05-10T15:07:26.197Z,101681.09
2023-05-10T15:09:54.509Z,101688.09
2023-05-10T15:12:23.050Z,101687.94
2023-05-10T15:14:51.446Z,101696.66
2023-05-10T15:17:19.634Z,101700.84
2023-05-10T15:19:48.218Z,101705.22
2023-05-10T15:22:16.395Z,101705.19
2023-05-10T15:24:44.646Z,101703.38
2023-05-10T15:27:12.979Z,101700.56
2023-05-10T15:29:41.174Z,101706.59
2023-05-10T15:32:09.481Z,101706.44
2023-05-10T15:34:37.900Z,101701.06
2023-05-10T15:37:06.347Z,101708.91
2023-05-10T15:39:34.521Z,101711.50
2023-05-10T15:42:03.262Z,101707.84
2023-05-10T15:44:31.700Z,101707.78
2023-05-10T15:47:00.065Z,101717.56
2023-05-10T15:49:28.281Z,101712.25
2023-05-10T15:51:56.475Z,101721.84
2023-05-10T15:54:24.703Z,101718.22
2023-05-10T15:56:52.938Z,101730.56
2023-05-10T15:59:21.156Z,101723.34
2023-05-10T16:01:50.672Z,101726.75
2023-05-10T16:04:19.141Z,101730.22
2023-05-10T16:06:47.347Z,101732.72
2023-05-10T16:09:16.467Z,101728.13
2023-05-10T16:11:45.164Z,101727.28
2023-05-10T16:14:13.615Z,101726.31
2023-05-10T16:16:42.273Z,101734.41
2023-05-10T16:19:10.560Z,101730.72
2023-05-10T16:21:39.046Z,101742.97
2023-05-10T16:24:07.356Z,101733.97
2023-05-10T16:26:41.451Z,101735.56
2023-05-10T16:29:10.448Z,101739.75
2023-05-10T16:31:38.765Z,101734.31
2023-05-10T16:34:06.981Z,101735.94
2023-05-10T16:36:35.207Z,101736.78
2023-05-10T16:39:03.684Z,101740.38
2023-05-10T16:41:35.413Z,101737.72
2023-05-10T16:44:04.624Z,101735.97
2023-05-10T16:46:33.979Z,101742.94
2023-05-10T16:49:02.234Z,101745.47
2023-05-10T16:51:30.401Z,101748.84
2023-05-10T16:53:58.629Z,101746.03
2023-05-10T16:56:27.526Z,101748.63
2023-05-10T16:58:55.761Z,101747.69
2023-05-10T17:01:26.489Z,101745.88
2023-05-10T17:03:55.406Z,101750.28
2023-05-10T17:06:23.856Z,101750.03
2023-05-10T17:08:52.541Z,101751.59
2023-05-10T17:11:22.595Z,101748.72
2023-05-10T17:13:52.793Z,101748.53
2023-05-10T17:16:22.209Z,101750.09
2023-05-10T17:18:50.606Z,101751.69
2023-05-10T17:21:18.866Z,101748.81
2023-05-10T17:23:47.096Z,101751.25
2023-05-10T17:26:15.331Z,101748.34
2023-05-10T17:28:43.568Z,101751.69
2023-05-10T17:31:12.574Z,101752.75
2023-05-10T17:33:41.091Z,101751.25
2023-05-10T17:36:09.535Z,101749.69
2023-05-10T17:38:38.276Z,101753.16
2023-05-10T17:41:06.514Z,101753.09
2023-05-10T17:43:34.700Z,101758.22
2023-05-10T17:46:03.036Z,101758.09
2023-05-10T17:48:31.786Z,101755.25
2023-05-10T17:51:00.014Z,101757.03
2023-05-10T17:53:28.408Z,101752.53
2023-05-10T17:55:59.868Z,101755.94
2023-05-10T17:58:28.297Z,101750.53
2023-05-10T18:00:58.325Z,101749.47
2023-05-10T18:03:26.843Z,101756.31
2023-05-10T18:05:56.107Z,101758.69
2023-05-10T18:08:27.744Z,101759.38
2023-05-10T18:10:55.934Z,101762.09
2023-05-10T18:13:25.210Z,101757.75
2023-05-10T18:15:54.097Z,101760.25
2023-05-10T18:18:22.419Z,101760.03
2023-05-10T18:20:57.190Z,101758.94
2023-05-10T18:23:25.790Z,101757.78
2023-05-10T18:25:54.361Z,101756.69
2023-05-10T18:28:22.668Z,101750.38
2023-05-10T18:30:51.155Z,101758.38
2023-05-10T18:33:19.442Z,101750.50
2023-05-10T18:35:48.483Z,101745.31
2023-05-10T18:38:16.769Z,101752.16
2023-05-10T18:40:45.089Z,101753.75
2023-05-10T18:43:13.324Z,101756.19
2023-05-10T18:45:41.578Z,101756.75
2023-05-10T18:48:09.777Z,101754.47
2023-05-10T18:50:37.956Z,101754.63
2023-05-10T18:53:06.191Z,101759.25
2023-05-10T18:55:34.447Z,101758.84
2023-05-10T18:58:02.826Z,101761.84
2023-05-10T19:00:31.004Z,101760.03
2023-05-10T19:02:59.234Z,101755.41
2023-05-10T19:05:30.916Z,101755.56
2023-05-10T19:07:59.260Z,101764.72
2023-05-10T19:10:27.454Z,101762.16
2023-05-10T19:12:55.616Z,101753.97
2023-05-10T19:15:24.160Z,101753.97
2023-05-10T19:17:53.273Z,101761.19
2023-05-10T19:20:24.062Z,101751.88
2023-05-10T19:23:08.234Z,101755.06
2023-05-10T19:25:38.276Z,101758.88
2023-05-10T19:28:06.514Z,101753.44
2023-05-10T19:30:34.872Z,101747.66
2023-05-10T19:33:05.967Z,101748.06
2023-05-10T19:35:34.221Z,101745.25
2023-05-10T19:38:02.523Z,101749.72
2023-05-10T19:40:30.851Z,101748.75
2023-05-10T19:42:59.097Z,101745.81
2023-05-10T19:45:27.814Z,101752.66
2023-05-10T19:47:56.258Z,101757.75
2023-05-10T19:50:24.693Z,101755.06
2023-05-10T19:52:53.268Z,101755.94
2023-05-10T19:55:30.049Z,101758.53
2023-05-10T19:57:58.762Z,101762.22
2023-05-10T20:00:28.096Z,101750.56
2023-05-10T20:02:56.881Z,101749.19
2023-05-10T20:05:25.546Z,101745.00
2023-05-10T20:07:53.968Z,101743.06
2023-05-10T20:10:25.200Z,101739.66
2023-05-10T20:12:55.263Z,101744.06
2023-05-10T20:15:24.474Z,101734.53
2023-05-10T20:17:54.091Z,101739.16
2023-05-10T20:20:23.163Z,101730.19
2023-05-10T20:22:51.957Z,101732.41
2023-05-10T20:25:20.495Z,101724.75
2023-05-10T20:27:51.618Z,101726.59
2023-05-10T20:30:20.585Z,101720.22
2023-05-10T20:32:49.294Z,101714.91
2023-05-10T20:35:17.536Z,101706.06
2023-05-10T20:37:45.730Z,101706.31
2023-05-10T20:40:14.454Z,101710.19
2023-05-10T20:42:42.831Z,101705.78
2023-05-10T20:45:11.614Z,101706.84
2023-05-10T20:47:39.870Z,101715.78
2023-05-10T20:50:08.703Z,101705.00
2023-05-10T20:52:36.886Z,101708.59
2023-05-10T20:55:05.317Z,101710.63
2023-05-10T20:57:33.513Z,101709.44
2023-05-10T21:00:01.885Z,101708.91
2023-05-10T21:02:30.133Z,101707.91
2023-05-10T21:04:58.437Z,101707.44
2023-05-10T21:07:26.715Z,101703.97
2023-05-10T21:09:54.966Z,101702.34
2023-05-10T21:12:23.196Z,101703.75
2023-05-10T21:14:51.464Z,101704.69
2023-05-10T21:17:20.221Z,101701.78
2023-05-10T21:19:48.955Z,101695.31
2023-05-10T21:22:17.457Z,101696.63
2023-05-10T21:24:45.722Z,101700.84
2023-05-10T21:27:14.239Z,101700.56
2023-05-10T21:29:42.448Z,101702.50
2023-05-10T21:32:10.748Z,101699.06
2023-05-10T21:34:38.973Z,101700.84
2023-05-10T21:37:07.262Z,101697.53
2023-05-10T21:39:35.525Z,101699.44
2023-05-10T21:42:04.492Z,101698.34
2023-05-10T21:44:32.867Z,101696.56
2023-05-10T21:47:01.122Z,101691.13
2023-05-10T21:49:29.363Z,101695.19
2023-05-10T21:51:57.631Z,101694.69
2023-05-10T21:54:25.881Z,101699.91
2023-05-10T21:56:54.629Z,101693.72
2023-05-10T21:59:22.944Z,101684.19
2023-05-10T22:01:51.247Z,101678.81
2023-05-10T22:04:19.413Z,101673.44
2023-05-10T22:06:48.125Z,101676.59
2023-05-10T22:09:16.452Z,101675.47
2023-05-10T22:11:44.625Z,101660.69
2023-05-10T22:14:12.845Z,101657.56
2023-05-10T22:16:41.068Z,101658.47
2023-05-10T22:19:09.475Z,101665.97
2023-05-10T22:21:37.789Z,101658.84
2023-05-10T22:24:06.177Z,101669.84
2023-05-10T22:26:34.424Z,101665.19
2023-05-10T22:29:02.648Z,101656.91
2023-05-10T22:31:30.899Z,101658.75
2023-05-10T22:33:59.267Z,101657.19
2023-05-10T22:36:28.122Z,101656.53
2023-05-10T22:38:56.504Z,101651.31
2023-05-10T22:41:24.796Z,101638.28
2023-05-10T22:43:53.041Z,101645.47
2023-05-10T22:46:21.350Z,101644.00
2023-05-10T22:48:49.967Z,101638.53
2023-05-10T22:51:18.175Z,101644.88
2023-05-10T22:53:47.130Z,101637.44
2023-05-10T22:56:15.453Z,101632.63
2023-05-10T22:58:43.861Z,101632.38
2023-05-10T23:01:12.260Z,101638.16
2023-05-10T23:03:40.588Z,101622.56
2023-05-10T23:06:08.836Z,101628.25
2023-05-10T23:08:37.029Z,101625.97
2023-05-10T23:11:05.209Z,101618.72
2023-05-10T23:13:33.480Z,101617.28
2023-05-10T23:16:07.446Z,101620.00
2023-05-10T23:18:35.933Z,101621.63
2023-05-10T23:21:04.178Z,101614.97
2023-05-10T23:23:34.808Z,101610.13
2023-05-10T23:26:05.000Z,101606.94
2023-05-10T23:28:35.048Z,101612.63
2023-05-10T23:31:03.613Z,101616.81
2023-05-10T23:33:31.871Z,101612.75
2023-05-10T23:36:00.068Z,101618.75
2023-05-10T23:38:28.258Z,101619.88
2023-05-10T23:40:56.530Z,101620.94
2023-05-10T23:43:26.102Z,101617.94
2023-05-10T23:45:55.969Z,101613.94
2023-05-10T23:48:24.954Z,101611.75
2023-05-10T23:50:53.216Z,101614.03
2023-05-10T23:53:21.545Z,101603.69
2023-05-10T23:55:49.859Z,101603.34
2023-05-10T23:58:18.136Z,101600.00
